createdAt,value
2019-01-03T00:01:14.180Z,0.80
2019-01-03T00:04:14.586Z,0.70
2019-01-03T00:07:03.104Z,1.07
2019-01-03T00:10:02.104Z,1.00
2019-01-03T00:13:02.967Z,0.83
2019-01-03T00:16:02.990Z,0.67
2019-01-03T00:19:04.436Z,0.87
2019-01-03T00:22:04.445Z,0.53
2019-01-03T00:25:01.853Z,0.80
2019-01-03T00:28:04.403Z,1.37
2019-01-03T00:31:05.261Z,0.87
2019-01-03T00:34:05.399Z,0.50
2019-01-03T00:37:05.306Z,0.70
2019-01-03T00:40:12.874Z,0.73
2019-01-03T00:43:12.881Z,0.93
2019-01-03T00:46:13.133Z,0.70
2019-01-03T00:49:13.863Z,1.00
2019-01-03T00:52:14.192Z,0.90
2019-01-03T00:55:02.739Z,1.40
2019-01-03T00:58:10.445Z,1.00
2019-01-03T01:01:10.934Z,1.10
2019-01-03T01:07:19.312Z,1.10
2019-01-03T01:13:21.699Z,1.23
2019-01-03T01:16:21.596Z,1.10
2019-01-03T01:19:23.276Z,1.13
2019-01-03T01:22:26.730Z,1.17
2019-01-03T01:25:26.483Z,1.10
2019-01-03T01:31:27.936Z,1.00
2019-01-03T01:34:30.825Z,0.47
2019-01-03T01:37:30.544Z,0.50
2019-01-03T01:40:30.029Z,0.87
2019-01-03T01:43:18.643Z,0.43
2019-01-03T01:46:26.195Z,0.57
2019-01-03T01:49:14.806Z,0.70
2019-01-03T01:52:03.395Z,0.90
2019-01-03T01:55:03.511Z,0.63
2019-01-03T01:57:52.437Z,0.70
2019-01-03T02:01:00.223Z,0.67
2019-01-03T02:04:00.858Z,0.90
2019-01-03T02:07:01.759Z,0.60
2019-01-03T02:09:57.396Z,0.80
2019-01-03T02:12:52.399Z,0.80
2019-01-03T02:15:58.271Z,0.43
2019-01-03T02:18:47.023Z,0.77
2019-01-03T02:21:35.952Z,0.77
2019-01-03T02:24:36.447Z,0.70
2019-01-03T02:27:42.364Z,0.50
2019-01-03T02:30:41.109Z,0.50
2019-01-03T02:36:43.156Z,0.40
2019-01-03T02:39:43.663Z,0.70
2019-01-03T02:42:39.176Z,0.57
2019-01-03T02:45:27.552Z,0.60
2019-01-03T02:48:34.980Z,1.13
2019-01-03T02:51:35.477Z,0.43
2019-01-03T02:54:36.801Z,0.40
2019-01-03T03:00:40.110Z,0.53
2019-01-03T03:03:40.292Z,0.47
2019-01-03T03:06:28.846Z,0.37
2019-01-03T03:09:36.635Z,0.43
2019-01-03T03:12:37.710Z,0.70
2019-01-03T03:15:26.804Z,0.62
2019-01-03T03:18:32.119Z,0.40
2019-01-03T03:21:22.079Z,0.87
2019-01-03T03:24:24.865Z,0.50
2019-01-03T03:27:24.961Z,0.40
2019-01-03T03:30:25.298Z,0.87
2019-01-03T03:33:25.086Z,0.40
2019-01-03T03:36:19.152Z,0.90
2019-01-03T03:39:19.655Z,1.43
2019-01-03T03:42:19.736Z,0.70
2019-01-03T03:48:03.485Z,0.40
2019-01-03T03:51:10.886Z,0.40
2019-01-03T03:57:25.137Z,0.50
2019-01-03T04:00:24.955Z,0.50
2019-01-03T04:03:30.714Z,0.77
2019-01-03T04:09:14.151Z,0.70
2019-01-03T04:12:16.428Z,0.60
2019-01-03T04:15:17.988Z,0.43
2019-01-03T04:18:18.405Z,0.30
2019-01-03T04:21:06.813Z,0.40
2019-01-03T04:24:14.219Z,0.57
2019-01-03T04:27:15.374Z,0.73
2019-01-03T04:33:21.673Z,0.40
2019-01-03T04:36:21.992Z,0.33
2019-01-03T04:39:23.029Z,0.10
2019-01-03T04:42:18.272Z,0.73
2019-01-03T04:45:19.630Z,0.43
2019-01-03T04:48:19.994Z,0.60
2019-01-03T04:51:25.594Z,0.90
2019-01-03T04:54:27.473Z,0.33
2019-01-03T04:57:15.900Z,0.67
2019-01-03T05:00:04.246Z,0.83
2019-01-03T05:02:58.487Z,0.60
2019-01-03T05:06:01.466Z,0.60
2019-01-03T05:09:01.581Z,0.90
2019-01-03T05:12:07.857Z,0.80
2019-01-03T05:15:08.115Z,0.50
2019-01-03T05:20:58.281Z,0.63
2019-01-03T05:24:05.689Z,0.70
2019-01-03T05:27:06.202Z,0.60
2019-01-03T05:30:18.402Z,0.80
2019-01-03T05:33:17.479Z,0.53
2019-01-03T05:39:07.846Z,0.57
2019-01-03T05:41:57.577Z,0.80
2019-01-03T05:44:58.278Z,0.70
2019-01-03T05:47:58.260Z,0.90
2019-01-03T05:50:59.533Z,0.40
2019-01-03T05:53:59.930Z,0.50
2019-01-03T05:57:02.985Z,0.67
2019-01-03T06:03:06.508Z,0.70
2019-01-03T06:05:54.955Z,1.10
2019-01-03T06:09:02.633Z,0.60
2019-01-03T06:12:02.403Z,0.63
2019-01-03T06:14:58.047Z,0.97
2019-01-03T06:17:38.175Z,0.80
2019-01-03T06:20:39.407Z,2.43
2019-01-03T06:23:46.895Z,0.57
2019-01-03T06:26:47.139Z,0.30
2019-01-03T06:29:52.937Z,0.30
2019-01-03T06:33:00.383Z,0.50
2019-01-03T06:36:03.407Z,0.50
2019-01-03T06:38:51.989Z,0.40
2019-01-03T06:41:59.532Z,0.73
2019-01-03T06:44:48.106Z,0.50
2019-01-03T06:47:55.702Z,0.83
2019-01-03T06:50:58.924Z,0.50
2019-01-03T06:57:01.030Z,0.73
2019-01-03T07:00:01.686Z,0.40
2019-01-03T07:03:10.618Z,0.80
2019-01-03T07:09:12.894Z,1.50
2019-01-03T07:12:09.010Z,1.20
2019-01-03T07:15:09.055Z,1.20
2019-01-03T07:21:27.114Z,0.50
2019-01-03T07:24:22.901Z,0.27
2019-01-03T07:27:24.482Z,0.90
2019-01-03T07:30:24.908Z,1.03
2019-01-03T07:39:22.341Z,0.60
2019-01-03T07:42:22.219Z,0.83
2019-01-03T07:45:22.943Z,1.10
2019-01-03T07:48:07.464Z,0.83
2019-01-03T07:51:14.908Z,0.57
2019-01-03T07:54:22.354Z,1.10
2019-01-03T07:57:22.371Z,2.77
2019-01-03T08:00:22.840Z,2.00
2019-01-03T08:03:25.618Z,1.67
2019-01-03T08:06:25.724Z,0.90
2019-01-03T08:09:25.252Z,1.30
2019-01-03T08:12:25.209Z,0.90
2019-01-03T08:15:25.704Z,0.60
2019-01-03T08:18:26.049Z,0.80
2019-01-03T08:24:12.325Z,0.90
2019-01-03T08:27:00.735Z,0.60
2019-01-03T08:29:42.049Z,0.73
2019-01-03T08:32:49.528Z,0.70
2019-01-03T08:35:49.466Z,0.80
2019-01-03T08:38:49.771Z,3.00
2019-01-03T08:41:49.988Z,2.20
2019-01-03T08:48:09.684Z,4.23
2019-01-03T08:51:09.976Z,0.63
2019-01-03T08:54:13.398Z,0.80
2019-01-03T09:03:19.723Z,0.80
2019-01-03T09:09:31.106Z,0.93
2019-01-03T09:12:34.436Z,0.63
2019-01-03T09:15:16.545Z,0.80
2019-01-03T09:18:23.973Z,1.10
2019-01-03T09:21:23.524Z,1.13
2019-01-03T09:24:11.936Z,0.80
2019-01-03T09:27:00.355Z,0.80
2019-01-03T09:30:07.774Z,1.07
2019-01-03T09:36:11.918Z,1.03
2019-01-03T09:39:11.553Z,0.53
2019-01-03T09:41:59.962Z,0.80
2019-01-03T09:44:48.487Z,0.97
2019-01-03T09:53:33.524Z,0.50
2019-01-03T09:56:14.835Z,0.80
2019-01-03T09:58:44.358Z,0.40
2019-01-03T10:01:32.911Z,0.83
2019-01-03T10:04:14.402Z,0.80
2019-01-03T10:06:43.916Z,0.50
2019-01-03T10:09:13.403Z,1.23
2019-01-03T10:12:01.958Z,0.70
2019-01-03T10:14:50.493Z,0.40
2019-01-03T10:17:31.635Z,0.63
2019-01-03T10:20:12.399Z,0.50
2019-01-03T10:22:54.044Z,0.60
2019-01-03T10:25:37.578Z,1.00
2019-01-03T10:28:19.112Z,0.53
2019-01-03T10:33:42.510Z,0.37
2019-01-03T10:36:24.399Z,0.30
2019-01-03T10:39:05.773Z,0.70
2019-01-03T10:41:46.944Z,0.77
2019-01-03T10:44:16.460Z,0.60
2019-01-03T10:47:05.010Z,0.40
2019-01-03T10:49:46.083Z,0.63
2019-01-03T10:52:15.595Z,0.70
2019-01-03T10:55:04.388Z,0.40
2019-01-03T10:57:52.920Z,0.47
2019-01-03T11:00:34.498Z,0.60
2019-01-03T11:03:03.987Z,1.07
2019-01-03T11:05:45.251Z,0.70
2019-01-03T11:08:26.803Z,1.20
2019-01-03T11:11:07.895Z,0.50
2019-01-03T11:13:48.540Z,0.63
2019-01-03T11:16:30.267Z,0.80
2019-01-03T11:18:59.764Z,1.03
2019-01-03T11:21:48.318Z,0.97
2019-01-03T11:24:36.865Z,0.80
2019-01-03T11:27:06.452Z,0.83
2019-01-03T11:29:55.008Z,0.70
2019-01-03T11:32:24.658Z,0.60
2019-01-03T11:35:13.148Z,0.80
2019-01-03T11:37:54.545Z,0.60
2019-01-03T11:40:36.030Z,0.60
2019-01-03T11:43:16.849Z,0.60
2019-01-03T11:45:58.360Z,0.50
2019-01-03T11:48:39.879Z,0.60
2019-01-03T11:51:21.293Z,0.70
2019-01-03T11:53:50.819Z,0.90
2019-01-03T11:56:39.372Z,0.80
2019-01-03T11:59:39.397Z,0.77
2019-01-03T12:05:03.021Z,0.43
2019-01-03T12:07:43.913Z,0.67
2019-01-03T12:10:25.229Z,0.87
2019-01-03T12:13:06.017Z,0.60
2019-01-03T12:15:46.840Z,0.80
2019-01-03T12:18:28.435Z,0.73
2019-01-03T12:21:10.025Z,0.93
2019-01-03T12:23:51.552Z,1.00
2019-01-03T12:26:21.096Z,0.53
2019-01-03T12:29:09.643Z,0.70
2019-01-03T12:31:39.207Z,0.70
2019-01-03T12:34:08.725Z,0.50
2019-01-03T12:40:38.382Z,0.80
2019-01-03T12:43:19.844Z,0.43
2019-01-03T12:46:01.236Z,0.60
2019-01-03T12:48:31.046Z,0.80
2019-01-03T12:51:19.923Z,0.40
2019-01-03T12:54:08.700Z,0.67
2019-01-03T12:56:49.772Z,0.73
2019-01-03T12:59:31.659Z,0.60
2019-01-03T13:02:12.968Z,0.87
2019-01-03T13:04:43.226Z,0.50
2019-01-03T13:07:32.020Z,0.90
2019-01-03T13:10:20.837Z,1.00
2019-01-03T13:13:02.188Z,0.60
2019-01-03T13:15:43.470Z,0.77
2019-01-03T13:18:24.623Z,1.00
2019-01-03T13:21:05.727Z,0.50
2019-01-03T13:23:46.661Z,0.57
2019-01-03T13:26:27.934Z,0.87
2019-01-03T13:28:57.793Z,0.60
2019-01-03T13:31:46.446Z,0.80
2019-01-03T13:34:27.696Z,0.57
2019-01-03T13:37:08.448Z,0.50
2019-01-03T13:42:51.489Z,1.13
2019-01-03T13:45:33.033Z,1.00
2019-01-03T13:48:02.789Z,0.83
2019-01-03T13:50:51.445Z,0.77
2019-01-03T13:53:33.259Z,1.07
2019-01-03T13:56:14.660Z,0.90
2019-01-03T13:58:44.596Z,0.70
2019-01-03T14:01:14.483Z,0.60
2019-01-03T14:04:17.024Z,0.80
2019-01-03T14:06:53.888Z,0.70
2019-01-03T14:09:35.196Z,0.80
2019-01-03T14:12:16.629Z,0.63
2019-01-03T14:14:46.475Z,1.57
2019-01-03T14:17:35.419Z,1.27
2019-01-03T14:20:16.470Z,3.70
2019-01-03T14:22:46.539Z,3.27
2019-01-03T14:25:34.604Z,1.20
2019-01-03T14:28:23.502Z,1.03
2019-01-03T14:31:05.379Z,0.97
2019-01-03T14:33:46.598Z,0.87
2019-01-03T14:36:16.450Z,1.30
2019-01-03T14:42:12.703Z,0.60
2019-01-03T14:44:54.277Z,2.13
2019-01-03T14:47:24.093Z,1.07
2019-01-03T14:50:12.714Z,0.90
2019-01-03T14:52:54.276Z,0.60
2019-01-03T14:55:35.791Z,0.50
2019-01-03T14:58:17.078Z,0.50
2019-01-03T15:00:57.908Z,0.60
2019-01-03T15:03:39.346Z,0.70
2019-01-03T15:06:20.754Z,1.50
2019-01-03T15:09:02.618Z,0.70
2019-01-03T15:11:43.742Z,0.70
2019-01-03T15:14:25.321Z,0.67
2019-01-03T15:17:06.542Z,0.60
2019-01-03T15:19:47.930Z,0.90
2019-01-03T15:22:29.227Z,1.00
2019-01-03T15:25:10.921Z,1.27
2019-01-03T15:27:40.933Z,0.80
2019-01-03T15:30:30.133Z,0.70
2019-01-03T15:33:18.952Z,1.50
2019-01-03T15:35:48.923Z,1.20
2019-01-03T15:38:37.729Z,1.20
2019-01-03T15:41:07.428Z,1.30
2019-01-03T15:43:37.191Z,1.40
2019-01-03T15:46:07.155Z,1.77
2019-01-03T15:48:56.661Z,1.60
2019-01-03T15:51:45.435Z,2.23
2019-01-03T15:54:26.322Z,2.60
2019-01-03T15:57:08.328Z,3.47
2019-01-03T15:59:49.624Z,1.53
2019-01-03T16:02:31.267Z,1.63
2019-01-03T16:05:12.806Z,1.70
2019-01-03T16:07:54.396Z,1.93
2019-01-03T16:10:24.547Z,1.90
2019-01-03T16:12:54.735Z,1.80
2019-01-03T16:15:24.718Z,1.57
2019-01-03T16:18:13.634Z,1.70
2019-01-03T16:21:02.371Z,1.63
2019-01-03T16:23:51.063Z,1.30
2019-01-03T16:26:32.000Z,1.27
2019-01-03T16:29:13.808Z,1.40
2019-01-03T16:31:54.822Z,1.30
2019-01-03T16:34:35.702Z,1.70
2019-01-03T16:37:17.369Z,2.00
2019-01-03T16:39:59.035Z,1.27
2019-01-03T16:42:40.488Z,0.90
2019-01-03T16:45:21.412Z,1.67
2019-01-03T16:48:03.479Z,0.77
2019-01-03T16:50:33.980Z,1.40
2019-01-03T16:53:22.836Z,1.20
2019-01-03T16:56:04.227Z,1.50
2019-01-03T16:58:45.507Z,1.13
2019-01-03T17:01:26.810Z,1.37
2019-01-03T17:04:07.984Z,1.20
2019-01-03T17:06:49.246Z,1.23
2019-01-03T17:09:30.804Z,1.00
2019-01-03T17:12:00.547Z,1.30
2019-01-03T17:14:30.112Z,1.37
2019-01-03T17:17:00.762Z,1.37
2019-01-03T17:19:49.506Z,0.97
2019-01-03T17:22:37.467Z,1.17
2019-01-03T17:25:09.567Z,1.33
2019-01-03T17:27:58.315Z,1.10
2019-01-03T17:30:40.226Z,1.20
2019-01-03T17:33:21.799Z,1.90
2019-01-03T17:36:03.099Z,2.40
2019-01-03T17:38:44.698Z,3.10
2019-01-03T17:41:26.160Z,2.53
2019-01-03T17:44:08.085Z,2.03
2019-01-03T17:46:49.909Z,1.60
2019-01-03T17:49:31.422Z,2.10
2019-01-03T17:52:12.787Z,2.13
2019-01-03T17:54:54.789Z,1.33
2019-01-03T17:57:36.439Z,1.50
2019-01-03T18:00:18.455Z,1.70
2019-01-03T18:09:13.317Z,1.83
2019-01-03T18:11:54.048Z,2.20
2019-01-03T18:14:38.602Z,1.97
2019-01-03T18:17:19.993Z,2.03
2019-01-03T18:20:01.465Z,1.97
2019-01-03T18:22:42.844Z,1.83
2019-01-03T18:25:23.960Z,1.90
2019-01-03T18:28:04.740Z,1.60
2019-01-03T18:30:45.493Z,1.27
2019-01-03T18:33:27.165Z,1.47
2019-01-03T18:35:56.701Z,1.93
2019-01-03T18:38:45.251Z,1.57
2019-01-03T18:41:26.032Z,1.80
2019-01-03T18:44:07.632Z,1.70
2019-01-03T18:46:48.778Z,1.97
2019-01-03T18:49:29.637Z,2.47
2019-01-03T18:52:10.882Z,2.43
2019-01-03T18:54:52.276Z,2.03
2019-01-03T18:57:21.872Z,2.60
2019-01-03T19:00:10.781Z,2.80
2019-01-03T19:02:52.265Z,7.17
2019-01-03T19:05:33.551Z,5.37
2019-01-03T19:08:33.722Z,3.03
2019-01-03T19:11:15.555Z,2.70
2019-01-03T19:13:57.777Z,2.47
2019-01-03T19:16:38.565Z,2.47
2019-01-03T19:19:19.352Z,3.20
2019-01-03T19:22:00.727Z,3.53
2019-01-03T19:24:41.472Z,3.00
2019-01-03T19:27:22.939Z,3.30
2019-01-03T19:29:52.460Z,5.27
2019-01-03T19:32:41.478Z,6.07
2019-01-03T19:35:23.944Z,6.03
2019-01-03T19:38:04.775Z,7.10
2019-01-03T19:40:45.753Z,5.77
2019-01-03T19:43:26.581Z,9.40
2019-01-03T19:46:08.095Z,7.70
2019-01-03T19:48:49.531Z,4.07
2019-01-03T19:52:42.004Z,3.20
2019-01-03T19:55:12.416Z,4.70
2019-01-03T19:57:42.531Z,5.13
2019-01-03T20:00:22.037Z,4.20
2019-01-03T20:02:52.598Z,4.10
2019-01-03T20:05:22.511Z,3.63
2019-01-03T20:07:52.840Z,3.03
2019-01-03T20:10:23.194Z,3.07
2019-01-03T20:12:53.779Z,3.50
2019-01-03T20:15:24.065Z,3.43
2019-01-03T20:17:54.059Z,3.30
2019-01-03T20:20:24.228Z,3.80
2019-01-03T20:22:54.100Z,4.53
2019-01-03T20:25:24.211Z,4.23
2019-01-03T20:27:54.103Z,3.80
2019-01-03T20:30:24.326Z,4.77
2019-01-03T20:32:54.473Z,4.53
2019-01-03T20:35:25.153Z,4.17
2019-01-03T20:37:55.163Z,4.40
2019-01-03T20:40:25.210Z,4.50
2019-01-03T20:42:55.382Z,4.50
2019-01-03T20:45:25.823Z,4.63
2019-01-03T20:47:55.847Z,4.97
2019-01-03T20:50:27.396Z,4.43
2019-01-03T20:52:57.014Z,4.80
2019-01-03T20:55:27.292Z,5.03
2019-01-03T20:57:57.286Z,4.90
2019-01-03T21:00:27.189Z,4.80
2019-01-03T21:02:57.258Z,5.30
2019-01-03T21:05:27.503Z,4.70
2019-01-03T21:07:57.252Z,4.33
2019-01-03T21:10:27.581Z,4.57
2019-01-03T21:12:57.349Z,3.80
2019-01-03T21:15:27.555Z,4.70
2019-01-03T21:17:57.358Z,5.77
2019-01-03T21:20:27.166Z,4.53
2019-01-03T21:22:56.989Z,4.40
2019-01-03T21:25:27.427Z,3.70
2019-01-03T21:27:57.334Z,4.53
2019-01-03T21:30:27.210Z,4.17
2019-01-03T21:32:57.007Z,4.27
2019-01-03T21:35:26.778Z,4.40
2019-01-03T21:37:56.455Z,4.13
2019-01-03T21:40:26.355Z,4.07
2019-01-03T21:42:56.008Z,4.53
2019-01-03T21:45:26.062Z,4.67
2019-01-03T21:47:56.152Z,4.40
2019-01-03T21:50:26.539Z,5.03
2019-01-03T21:52:56.819Z,4.30
2019-01-03T21:55:26.729Z,4.70
2019-01-03T21:57:57.036Z,4.77
2019-01-03T22:00:27.272Z,4.80
2019-01-03T22:02:57.490Z,5.37
2019-01-03T22:05:27.383Z,4.03
2019-01-03T22:07:57.059Z,4.27
2019-01-03T22:10:26.938Z,4.63
2019-01-03T22:12:56.825Z,3.97
2019-01-03T22:15:26.838Z,4.23
2019-01-03T22:17:56.967Z,3.93
2019-01-03T22:20:27.105Z,4.07
2019-01-03T22:22:57.168Z,4.63
2019-01-03T22:25:27.175Z,7.23
2019-01-03T22:27:57.567Z,6.30
2019-01-03T22:30:27.838Z,3.90
2019-01-03T22:32:58.080Z,3.70
2019-01-03T22:35:27.963Z,3.70
2019-01-03T22:37:57.641Z,5.23
2019-01-03T22:40:27.487Z,4.97
2019-01-03T22:42:57.838Z,4.77
2019-01-03T22:45:27.739Z,4.50
2019-01-03T22:47:57.856Z,4.40
2019-01-03T22:50:27.892Z,4.33
2019-01-03T22:52:57.843Z,4.00
2019-01-03T22:55:27.890Z,4.10
2019-01-03T22:57:58.060Z,3.70
2019-01-03T23:00:39.469Z,3.67
2019-01-03T23:03:11.236Z,3.63
2019-01-03T23:05:41.018Z,3.80
2019-01-03T23:08:10.840Z,3.13
2019-01-03T23:10:40.680Z,3.50
2019-01-03T23:13:29.260Z,3.80
2019-01-03T23:15:59.121Z,3.10
2019-01-03T23:18:31.468Z,3.47
2019-01-03T23:21:00.775Z,3.00
2019-01-03T23:23:31.498Z,3.17
2019-01-03T23:26:07.263Z,2.50
2019-01-03T23:28:37.308Z,2.73
2019-01-03T23:31:07.346Z,3.20
2019-01-03T23:33:37.898Z,2.53
2019-01-03T23:36:07.997Z,2.80
2019-01-03T23:38:37.788Z,2.47
2019-01-03T23:41:07.711Z,2.53
2019-01-03T23:43:37.752Z,2.30
2019-01-03T23:46:07.947Z,2.80
2019-01-03T23:48:38.668Z,2.47
2019-01-03T23:51:09.415Z,3.00
2019-01-03T23:53:39.542Z,2.97
2019-01-03T23:56:09.668Z,2.83
2019-01-03T23:58:39.676Z,2.00
